Time;durP1;ratioP1;P1;durP2;ratioP2;P2;SDS_P1;SDS_P2;PMS_P1;PMS_P2;Temp;Humidity;BMP_temperature;BMP_pressure;BME280_temperature;BME280_humidity;BME280_pressure;Samples;Min_cycle;Max_cycle;Signal;HPM_P1;HPM_P2
2021/04/15 00:01:31;;;;;;;11.20;5.70;;;;;;;2.51;86.93;98569.88;5031772;28;20112;-76
2021/04/15 00:03:56;;;;;;;8.38;4.80;;;;;;;2.47;86.88;98563.31;5031613;28;20572;-75
2021/04/15 00:06:25;;;;;;;10.27;5.80;;;;;;;2.62;86.32;98574.53;5032312;28;20120;-76
2021/04/15 00:08:52;;;;;;;12.07;6.05;;;;;;;2.47;86.75;98566.03;5031912;28;20041;-76
2021/04/15 00:11:20;;;;;;;10.75;4.70;;;;;;;2.26;87.79;98567.31;5014534;28;20061;-76
2021/04/15 00:13:49;;;;;;;8.55;6.03;;;;;;;2.16;88.55;98561.66;5014929;28;20391;-76
2021/04/15 00:16:16;;;;;;;9.85;6.15;;;;;;;2.05;88.95;98557.81;5033278;28;20038;-75
2021/04/15 00:18:42;;;;;;;7.50;5.65;;;;;;;2.06;89.33;98555.97;5016007;28;20024;-75
2021/04/15 00:21:09;;;;;;;9.02;5.00;;;;;;;2.17;88.93;98564.09;5032418;28;20033;-75
2021/04/15 00:23:34;;;;;;;11.95;5.55;;;;;;;2.04;89.44;98558.03;5032266;28;20469;-76
2021/04/15 00:26:01;;;;;;;11.18;6.28;;;;;;;1.99;89.47;98561.44;5031891;28;20025;-74
2021/04/15 00:28:27;;;;;;;10.13;5.95;;;;;;;2.02;89.39;98550.19;5037504;28;20085;-76
2021/04/15 00:30:53;;;;;;;8.77;5.40;;;;;;;1.96;89.66;98561.06;5049730;28;20036;-75
2021/04/15 00:33:20;;;;;;;10.07;5.95;;;;;;;1.90;89.85;98554.69;5037356;28;20496;-76
2021/04/15 00:35:45;;;;;;;7.65;5.53;;;;;;;1.93;89.81;98553.41;5014981;28;20028;-75
2021/04/15 00:38:18;;;;;;;7.82;5.72;;;;;;;1.91;90.03;98553.63;5031368;28;20109;-76
2021/04/15 00:40:45;;;;;;;8.70;5.45;;;;;;;1.98;89.21;98559.78;5031107;28;20041;-76
2021/04/15 00:43:12;;;;;;;9.90;6.47;;;;;;;1.72;90.12;98543.09;5031232;28;20360;-76
2021/04/15 00:45:40;;;;;;;9.00;5.78;;;;;;;1.69;90.23;98560.53;5031288;28;20490;-75
2021/04/15 00:48:39;;;;;;;7.82;5.53;;;;;;;1.63;89.73;98558.72;5031160;28;20445;-75
2021/04/15 00:51:12;;;;;;;10.20;5.45;;;;;;;1.48;89.70;98553.69;5030955;28;20036;-76
2021/04/15 00:53:47;;;;;;;8.45;5.32;;;;;;;1.31;89.86;98551.78;5031602;28;20677;-76
2021/04/15 00:56:13;;;;;;;6.60;4.28;;;;;;;1.21;90.47;98554.97;5013670;28;20064;-75
2021/04/15 00:58:40;;;;;;;10.15;5.85;;;;;;;1.14;90.94;98564.97;5031019;28;20060;-76
2021/04/15 01:01:05;;;;;;;9.50;6.47;;;;;;;1.15;91.00;98553.19;5030870;28;20029;-76
2021/04/15 01:03:35;;;;;;;6.30;4.60;;;;;;;1.34;90.40;98556.72;5031105;28;20501;-75
2021/04/15 01:06:01;;;;;;;13.48;5.63;;;;;;;1.41;89.97;98554.81;5031597;28;20041;-76
2021/04/15 01:08:27;;;;;;;14.57;5.13;;;;;;;1.33;89.70;98547.81;5031504;28;20029;-76
2021/04/15 01:11:40;;;;;;;6.38;4.65;;;;;;;1.32;90.17;98550.72;5031218;28;20037;-75
2021/04/15 01:14:17;;;;;;;6.00;4.18;;;;;;;1.22;90.50;98537.78;4970168;28;20042;-75
2021/04/15 01:16:48;;;;;;;5.75;4.38;;;;;;;1.16;91.37;98548.63;4970210;28;20451;-75
2021/04/15 01:19:42;;;;;;;7.93;5.50;;;;;;;1.16;91.57;98545.91;5005802;28;20048;-75
2021/04/15 01:22:41;;;;;;;9.07;5.18;;;;;;;1.11;91.91;98549.25;5031130;28;20049;-76
2021/04/15 01:25:15;;;;;;;10.00;5.43;;;;;;;1.13;92.26;98549.06;5013235;28;20042;-75
2021/04/15 01:27:47;;;;;;;6.05;4.60;;;;;;;1.15;92.20;98541.56;5011116;28;20112;-75
2021/04/15 01:30:12;;;;;;;10.63;6.18;;;;;;;1.14;91.99;98543.44;5012310;28;20172;-76
2021/04/15 01:32:47;;;;;;;7.95;5.30;;;;;;;1.13;91.11;98552.56;5010967;28;20085;-76
2021/04/15 01:35:41;;;;;;;9.57;5.15;;;;;;;1.21;90.84;98546.91;5022868;28;20034;-76
2021/04/15 01:38:20;;;;;;;12.95;6.05;;;;;;;1.34;90.20;98545.97;5004315;28;20050;-75
2021/04/15 01:41:12;;;;;;;11.32;6.28;;;;;;;1.49;89.10;98541.03;5031066;28;20391;-75
2021/04/15 01:43:44;;;;;;;12.70;5.70;;;;;;;1.40;89.74;98548.59;5032205;28;20056;-75
2021/04/15 01:46:10;;;;;;;5.65;4.55;;;;;;;1.39;89.79;98544.25;5032999;28;20060;-75
2021/04/15 01:48:48;;;;;;;10.70;5.30;;;;;;;1.49;89.21;98538.34;5032143;28;20021;-76
2021/04/15 01:51:17;;;;;;;11.52;5.18;;;;;;;1.43;89.73;98534.69;5026046;28;20395;-75
2021/04/15 01:53:49;;;;;;;8.80;5.47;;;;;;;1.30;90.10;98539.34;5010883;28;20030;-75
2021/04/15 01:56:24;;;;;;;7.55;5.25;;;;;;;1.17;90.88;98518.75;5010636;28;20033;-76
2021/04/15 01:59:00;;;;;;;10.20;5.63;;;;;;;1.28;90.90;98536.91;5010647;28;20033;-76
2021/04/15 02:01:30;;;;;;;7.40;4.72;;;;;;;1.21;91.25;98538.00;5010661;28;20441;-75
2021/04/15 02:04:01;;;;;;;8.75;5.65;;;;;;;1.23;90.96;98525.13;5010606;28;20526;-76
2021/04/15 02:06:29;;;;;;;10.32;5.82;;;;;;;1.22;90.93;98527.00;4992898;28;20083;-75
2021/04/15 02:09:08;;;;;;;6.97;5.22;;;;;;;1.30;90.46;98533.97;5019271;28;20037;-76
2021/04/15 02:11:45;;;;;;;9.27;5.35;;;;;;;1.32;90.46;98532.69;5027985;28;20065;-76
2021/04/15 02:14:15;;;;;;;8.38;5.78;;;;;;;1.29;90.18;98526.91;5027944;28;20041;-75
2021/04/15 02:16:45;;;;;;;7.53;4.57;;;;;;;1.22;90.75;98534.25;5027113;28;20056;-76
2021/04/15 02:19:35;;;;;;;6.28;4.53;;;;;;;1.24;91.02;98529.47;5026273;28;20474;-76
2021/04/15 02:22:04;;;;;;;6.30;4.22;;;;;;;1.26;90.63;98533.59;5029249;28;20424;-74
2021/04/15 02:24:36;;;;;;;9.68;4.40;;;;;;;1.22;90.81;98531.56;5030990;28;20033;-76
2021/04/15 02:27:07;;;;;;;7.90;5.10;;;;;;;1.40;89.80;98534.28;5032202;28;20091;-75
2021/04/15 02:29:37;;;;;;;8.77;4.65;;;;;;;1.18;90.12;98533.03;5033566;28;20041;-75
2021/04/15 02:32:11;;;;;;;5.80;4.30;;;;;;;1.08;90.71;98534.38;5033489;28;20037;-76
2021/04/15 02:34:43;;;;;;;6.18;3.88;;;;;;;0.84;91.80;98529.81;5033906;28;20029;-75
2021/04/15 02:37:25;;;;;;;8.93;4.10;;;;;;;0.81;92.06;98535.63;5034261;28;20053;-75
2021/04/15 02:40:00;;;;;;;6.43;4.25;;;;;;;0.84;92.25;98535.19;5033208;28;20116;-75
2021/04/15 02:42:30;;;;;;;5.15;3.53;;;;;;;0.93;91.86;98533.88;5012871;28;20103;-76
2021/04/15 02:45:17;;;;;;;11.48;4.88;;;;;;;0.78;92.12;98537.94;5038130;28;20039;-75
2021/04/15 02:47:49;;;;;;;5.82;4.63;;;;;;;0.76;92.15;98545.38;5037688;28;20040;-75
2021/04/15 02:50:17;;;;;;;8.43;5.60;;;;;;;0.76;92.92;98540.00;5033177;28;20025;-76
2021/04/15 02:52:47;;;;;;;8.25;4.72;;;;;;;0.72;92.35;98542.31;5030563;28;20045;-76
2021/04/15 02:55:18;;;;;;;7.20;4.00;;;;;;;0.74;92.26;98537.56;5031627;28;20530;-75
2021/04/15 02:58:01;;;;;;;8.02;4.63;;;;;;;0.71;92.51;98546.06;5029423;28;20083;-75
2021/04/15 03:00:34;;;;;;;8.13;4.57;;;;;;;0.68;92.64;98546.50;5030211;28;20486;-74
2021/04/15 03:03:11;;;;;;;8.50;4.82;;;;;;;0.55;92.82;98551.97;5030573;28;20029;-75
2021/04/15 03:05:51;;;;;;;7.50;5.68;;;;;;;0.42;93.67;98546.66;5032984;28;20021;-76
2021/04/15 03:08:22;;;;;;;9.30;4.90;;;;;;;0.47;93.50;98542.28;5032770;28;20037;-76
2021/04/15 03:11:21;;;;;;;8.27;5.40;;;;;;;0.57;93.10;98549.88;5012690;28;20029;-76
2021/04/15 03:13:54;;;;;;;7.28;6.00;;;;;;;0.47;93.59;98549.53;5012283;28;20065;-75
2021/04/15 03:16:24;;;;;;;10.10;5.20;;;;;;;0.46;93.50;98537.13;5013727;28;20084;-74
2021/04/15 03:19:01;;;;;;;7.95;4.45;;;;;;;0.54;93.29;98542.22;5030380;28;20087;-75
2021/04/15 03:21:32;;;;;;;8.85;5.50;;;;;;;0.60;93.02;98544.06;5028336;28;20033;-77
2021/04/15 03:24:06;;;;;;;5.57;4.90;;;;;;;0.61;92.51;98539.50;5032642;28;20071;-75
2021/04/15 03:26:48;;;;;;;7.38;4.90;;;;;;;0.62;92.69;98539.28;5032320;28;20030;-74
2021/04/15 03:29:34;;;;;;;8.20;4.95;;;;;;;0.43;93.25;98541.06;5031516;28;20458;-76
2021/04/15 03:32:09;;;;;;;8.80;5.40;;;;;;;0.41;93.77;98531.53;5032049;28;20022;-75
2021/04/15 03:34:57;;;;;;;8.57;5.18;;;;;;;0.39;93.95;98539.84;5031680;28;20470;-75
2021/04/15 03:37:30;;;;;;;8.40;5.15;;;;;;;0.49;93.71;98542.06;5028697;28;20029;-74
2021/04/15 03:39:56;;;;;;;9.90;4.85;;;;;;;0.28;94.12;98548.59;5029043;28;20026;-76
2021/04/15 03:42:34;;;;;;;11.13;5.43;;;;;;;0.17;94.82;98540.38;5027236;28;20517;-75
2021/04/15 03:45:18;;;;;;;12.25;5.55;;;;;;;0.25;95.02;98540.16;5011716;28;20060;-74
2021/04/15 03:47:50;;;;;;;10.55;5.45;;;;;;;0.26;94.19;98537.22;5030336;28;20029;-76
2021/04/15 03:50:21;;;;;;;9.90;5.80;;;;;;;0.18;94.58;98536.66;5029642;28;20394;-75
2021/04/15 03:53:15;;;;;;;8.55;5.88;;;;;;;0.34;94.36;98544.22;5030289;28;20398;-76
2021/04/15 03:55:46;;;;;;;10.57;6.30;;;;;;;0.33;94.49;98540.72;5029916;28;20399;-75
2021/04/15 03:58:28;;;;;;;16.33;5.28;;;;;;;0.26;94.21;98549.84;5030903;28;20029;-75
2021/04/15 04:01:03;;;;;;;9.75;6.13;;;;;;;0.09;94.98;98535.25;5032085;28;20029;-76
2021/04/15 04:03:33;;;;;;;8.55;4.55;;;;;;;0.25;94.86;98551.69;5014395;28;20056;-76
2021/04/15 04:06:39;;;;;;;14.80;6.32;;;;;;;0.25;94.03;98561.66;5033427;28;20389;-77
2021/04/15 04:09:14;;;;;;;12.13;5.85;;;;;;;0.09;94.74;98556.78;4933572;29;20488;-75
2021/04/15 04:11:43;;;;;;;7.47;5.88;;;;;;;0.04;95.09;98559.25;4916674;29;20023;-75
2021/04/15 04:14:16;;;;;;;11.48;5.75;;;;;;;0.05;94.71;98561.75;4988072;28;20045;-76
2021/04/15 04:17:17;;;;;;;8.88;5.75;;;;;;;0.14;94.19;98562.31;5032258;28;20048;-76
2021/04/15 04:20:02;;;;;;;24.15;5.82;;;;;;;0.17;93.30;98560.03;5017561;28;20588;-76
2021/04/15 04:22:33;;;;;;;7.57;5.47;;;;;;;0.11;93.85;98560.06;5031551;28;20033;-75
2021/04/15 04:25:07;;;;;;;8.38;5.18;;;;;;;0.17;93.81;98554.66;5032085;28;20039;-75
2021/04/15 04:27:38;;;;;;;7.60;5.47;;;;;;;0.29;93.26;98565.56;5026472;28;20048;-75
2021/04/15 04:30:13;;;;;;;9.63;5.30;;;;;;;0.17;93.52;98562.72;5024319;28;20028;-74
2021/04/15 04:32:41;;;;;;;10.80;6.85;;;;;;;0.30;93.66;98559.13;5030312;28;20030;-75
2021/04/15 04:35:10;;;;;;;10.45;6.53;;;;;;;0.26;93.11;98564.13;4993342;28;20053;-76
2021/04/15 04:37:40;;;;;;;21.85;6.35;;;;;;;0.30;93.64;98564.53;5011449;28;20025;-74
2021/04/15 04:40:28;;;;;;;12.68;6.28;;;;;;;0.36;94.27;98560.97;5020013;28;20075;-74
2021/04/15 04:43:10;;;;;;;8.48;6.18;;;;;;;0.26;94.65;98564.13;5026149;28;20026;-74
2021/04/15 04:45:36;;;;;;;8.40;5.03;;;;;;;0.32;94.62;98568.63;5011291;28;20029;-75
2021/04/15 04:48:01;;;;;;;10.98;6.57;;;;;;;0.34;93.44;98574.66;5030427;28;20026;-75
2021/04/15 04:50:45;;;;;;;10.07;5.85;;;;;;;0.50;92.28;98574.13;5030413;28;20029;-74
2021/04/15 04:53:14;;;;;;;11.25;7.13;;;;;;;0.69;91.69;98572.34;5028002;28;20068;-75
2021/04/15 04:55:44;;;;;;;13.88;7.90;;;;;;;0.95;90.39;98577.56;5031132;28;20512;-74
2021/04/15 04:58:14;;;;;;;9.07;6.53;;;;;;;0.92;90.56;98575.31;5028668;28;20120;-75
2021/04/15 05:01:09;;;;;;;11.02;6.55;;;;;;;0.96;90.40;98575.69;5032259;28;20120;-75
2021/04/15 05:03:35;;;;;;;11.98;6.93;;;;;;;1.08;90.09;98577.47;5037126;28;20034;-75
2021/04/15 05:06:19;;;;;;;9.05;6.65;;;;;;;1.21;89.66;98587.31;5032511;28;20073;-75
2021/04/15 05:09:14;;;;;;;9.07;5.65;;;;;;;1.28;89.59;98579.19;5030060;28;20025;-74
2021/04/15 05:11:43;;;;;;;9.70;6.28;;;;;;;1.00;90.40;98577.72;5019630;28;20119;-73
2021/04/15 05:14:11;;;;;;;13.05;8.00;;;;;;;1.11;90.97;98583.44;5027832;28;20029;-73
2021/04/15 05:16:41;;;;;;;9.98;5.32;;;;;;;1.32;89.81;98574.97;5029994;28;20029;-75
2021/04/15 05:19:07;;;;;;;11.00;6.32;;;;;;;1.45;88.97;98591.03;5011503;28;20437;-75
2021/04/15 05:21:34;;;;;;;18.33;6.45;;;;;;;1.37;89.39;98584.06;5027896;28;20470;-75
2021/04/15 05:24:23;;;;;;;7.53;5.45;;;;;;;1.31;89.53;98590.34;5030547;28;20021;-75
2021/04/15 05:26:50;;;;;;;6.55;5.05;;;;;;;1.38;89.49;98579.50;5027603;28;20033;-74
2021/04/15 05:29:32;;;;;;;8.63;5.68;;;;;;;1.46;88.94;98571.13;5029360;28;20045;-74
2021/04/15 05:31:58;;;;;;;9.15;6.18;;;;;;;1.74;87.24;98581.41;5028965;28;20034;-75
2021/04/15 05:34:33;;;;;;;17.65;8.88;;;;;;;2.14;85.92;98586.16;5012292;28;20033;-74
2021/04/15 05:37:06;;;;;;;17.25;12.85;;;;;;;2.30;83.59;98590.09;5030373;28;20027;-74
2021/04/15 05:39:32;;;;;;;18.83;14.40;;;;;;;2.36;83.41;98593.75;5012336;28;20021;-73
2021/04/15 05:42:08;;;;;;;16.25;14.48;;;;;;;2.59;81.99;98588.50;5030537;28;20112;-73
2021/04/15 05:44:45;;;;;;;12.60;11.23;;;;;;;2.69;81.08;98589.56;5010358;28;20030;-73
2021/04/15 05:48:14;;;;;;;16.85;12.90;;;;;;;2.88;80.03;98595.75;5029657;28;20036;-75
2021/04/15 05:50:55;;;;;;;21.55;13.35;;;;;;;2.40;80.29;98546.38;5028995;28;20479;-74
2021/04/15 05:53:49;;;;;;;18.13;11.30;;;;;;;2.59;80.17;98569.59;5031525;28;20506;-71
2021/04/15 05:56:33;;;;;;;15.82;12.00;;;;;;;2.97;79.38;98591.69;5019451;28;20060;-75
2021/04/15 05:59:17;;;;;;;13.38;11.55;;;;;;;3.09;78.47;98578.19;5027674;28;20549;-75
2021/04/15 06:01:48;;;;;;;15.80;12.05;;;;;;;3.17;78.41;98581.38;5026294;28;20036;-74
2021/04/15 06:04:39;;;;;;;18.48;11.55;;;;;;;3.37;77.95;98591.88;5033786;28;20563;-75
2021/04/15 06:07:06;;;;;;;19.70;12.50;;;;;;;3.51;76.79;98585.16;5006895;28;20509;-74
2021/04/15 06:09:32;;;;;;;15.15;11.43;;;;;;;3.61;75.97;98593.53;5032843;28;20534;-75
2021/04/15 06:12:46;;;;;;;17.80;11.02;;;;;;;3.64;76.71;98587.63;5032064;28;20458;-76
2021/04/15 06:15:17;;;;;;;11.57;9.43;;;;;;;3.68;76.36;98585.28;5023610;28;20052;-76
2021/04/15 06:17:56;;;;;;;17.02;11.88;;;;;;;3.86;75.85;98587.03;5029714;28;20029;-75
2021/04/15 06:20:29;;;;;;;14.00;11.10;;;;;;;4.00;75.17;98589.28;5029437;28;20025;-77
2021/04/15 06:22:59;;;;;;;12.57;10.27;;;;;;;4.07;74.47;98581.81;5032471;28;20496;-75
2021/04/15 06:25:28;;;;;;;13.30;11.35;;;;;;;3.94;74.99;98587.53;5014602;28;20102;-75
2021/04/15 06:27:58;;;;;;;16.08;11.13;;;;;;;4.24;73.25;98590.88;5031829;28;20487;-76
2021/04/15 06:30:33;;;;;;;14.70;10.13;;;;;;;4.06;72.69;98588.31;5031716;28;20078;-75
2021/04/15 06:33:04;;;;;;;13.93;9.57;;;;;;;4.10;73.79;98586.75;5021962;28;20046;-75
2021/04/15 06:35:32;;;;;;;12.00;8.30;;;;;;;4.24;72.55;98582.75;5026906;28;20017;-75
2021/04/15 06:38:18;;;;;;;9.77;8.60;;;;;;;4.31;71.95;98585.31;5031692;28;20021;-75
2021/04/15 06:41:23;;;;;;;9.20;7.40;;;;;;;4.23;69.32;98583.81;5033141;28;20064;-75
2021/04/15 06:44:19;;;;;;;8.88;6.75;;;;;;;4.21;69.93;98588.63;5014950;28;20034;-74
2021/04/15 06:47:06;;;;;;;11.10;8.43;;;;;;;4.35;68.90;98578.38;5032557;28;20034;-75
2021/04/15 06:49:31;;;;;;;15.43;8.02;;;;;;;4.67;68.30;98589.53;4995325;28;20125;-75
2021/04/15 06:52:17;;;;;;;10.38;7.78;;;;;;;4.53;67.84;98575.50;5007819;28;20467;-75
2021/04/15 06:55:10;;;;;;;9.05;6.93;;;;;;;4.78;68.09;98580.56;5014935;28;20033;-75
2021/04/15 06:57:42;;;;;;;13.52;8.23;;;;;;;5.19;66.15;98580.22;5013358;28;20048;-76
2021/04/15 07:00:35;;;;;;;9.18;7.15;;;;;;;5.24;64.92;98577.59;5032303;28;20029;-76
2021/04/15 07:03:42;;;;;;;11.63;7.53;;;;;;;5.52;63.88;98573.16;5015244;28;20040;-75
2021/04/15 07:06:29;;;;;;;14.48;7.57;;;;;;;5.62;63.66;98578.72;4998347;28;20046;-76
2021/04/15 07:09:16;;;;;;;8.18;6.80;;;;;;;5.64;62.77;98574.69;4988571;28;20034;-76
2021/04/15 07:11:50;;;;;;;9.90;7.10;;;;;;;5.52;62.23;98568.53;5031150;28;20421;-76
2021/04/15 07:14:24;;;;;;;8.18;5.72;;;;;;;5.96;60.87;98572.22;5031566;28;20030;-76
2021/04/15 07:17:01;;;;;;;8.20;5.90;;;;;;;6.23;58.55;98569.59;5032563;28;20036;-75
2021/04/15 07:19:57;;;;;;;8.98;5.53;;;;;;;6.87;57.50;98562.44;5034354;28;20021;-74
2021/04/15 07:22:45;;;;;;;8.65;5.45;;;;;;;7.43;55.20;98572.78;5036482;28;20453;-77
2021/04/15 07:25:18;;;;;;;15.13;5.93;;;;;;;7.67;54.29;98575.13;5000800;28;20042;-76
2021/04/15 07:27:59;;;;;;;8.20;5.65;;;;;;;8.50;52.48;98577.00;5031044;28;20516;-76
2021/04/15 07:30:58;;;;;;;7.55;4.90;;;;;;;8.54;50.42;98565.31;5035975;28;20469;-76
2021/04/15 07:33:48;;;;;;;7.18;4.90;;;;;;;10.34;45.70;98572.22;5012735;28;20047;-75
2021/04/15 07:36:58;;;;;;;8.27;4.90;;;;;;;10.08;45.23;98574.16;5011331;28;20033;-76
2021/04/15 07:39:43;;;;;;;6.50;4.28;;;;;;;10.75;44.46;98569.00;5030392;28;20165;-75
2021/04/15 07:42:39;;;;;;;11.30;5.35;;;;;;;10.19;44.43;98573.06;5030839;28;20032;-77
2021/04/15 07:45:15;;;;;;;7.05;4.22;;;;;;;10.49;43.95;98564.78;5031028;28;20041;-75
2021/04/15 07:48:04;;;;;;;10.25;4.95;;;;;;;11.85;40.14;98573.19;5013450;28;20029;-75
2021/04/15 07:50:57;;;;;;;7.03;3.92;;;;;;;10.96;41.87;98577.13;5031053;28;20037;-75
2021/04/15 07:54:06;;;;;;;10.68;4.00;;;;;;;10.66;42.58;98575.34;5013048;28;20704;-77
2021/04/15 07:56:40;;;;;;;4.78;3.40;;;;;;;11.76;40.31;98579.31;5030960;28;20144;-75
2021/04/15 07:59:27;;;;;;;6.68;3.50;;;;;;;12.43;39.17;98579.47;5030874;28;20450;-75
2021/04/15 08:02:14;;;;;;;6.97;3.67;;;;;;;11.73;40.02;98579.06;5030731;28;20024;-75
2021/04/15 08:05:14;;;;;;;6.10;4.00;;;;;;;11.48;40.03;98577.31;5012364;28;20033;-75
2021/04/15 08:07:52;;;;;;;5.63;3.30;;;;;;;11.56;39.12;98567.69;5012790;28;20026;-75
2021/04/15 08:10:35;;;;;;;4.32;3.00;;;;;;;13.04;36.81;98571.25;5013206;28;20026;-75
2021/04/15 08:13:29;;;;;;;4.13;3.20;;;;;;;12.76;35.65;98568.34;5016195;28;20432;-76
2021/04/15 08:16:04;;;;;;;5.03;2.78;;;;;;;12.77;36.09;98566.41;5030823;28;20041;-76
2021/04/15 08:18:39;;;;;;;3.50;2.55;;;;;;;14.71;30.72;98572.81;5030429;28;20055;-76
2021/04/15 08:21:24;;;;;;;3.75;2.50;;;;;;;13.73;33.59;98563.06;5031130;28;20040;-74
2021/04/15 08:24:01;;;;;;;4.93;2.70;;;;;;;14.48;32.88;98562.81;5030122;28;20032;-75
2021/04/15 08:26:47;;;;;;;8.95;4.00;;;;;;;14.75;32.19;98562.84;5030307;28;20263;-77
2021/04/15 08:29:50;;;;;;;5.03;2.50;;;;;;;14.42;32.86;98564.03;5013034;28;20044;-74
2021/04/15 08:32:35;;;;;;;9.52;3.40;;;;;;;16.48;29.63;98565.78;5030283;28;20029;-75
2021/04/15 08:35:38;;;;;;;4.82;2.58;;;;;;;13.80;31.49;98562.69;5030162;28;20060;-74
2021/04/15 08:38:33;;;;;;;6.07;2.90;;;;;;;14.65;30.55;98554.78;5030388;28;20064;-75
2021/04/15 08:41:36;;;;;;;2.53;2.17;;;;;;;13.64;31.31;98553.06;5030228;28;20025;-76
2021/04/15 08:44:11;;;;;;;4.18;2.35;;;;;;;14.03;31.21;98555.41;5030620;28;20033;-75
2021/04/15 08:47:03;;;;;;;3.72;2.75;;;;;;;13.80;31.67;98547.00;5032923;28;20056;-75
2021/04/15 08:49:47;;;;;;;3.63;2.40;;;;;;;14.88;28.13;98556.47;5030695;28;20025;-75
2021/04/15 08:52:40;;;;;;;5.80;2.47;;;;;;;14.98;28.29;98556.25;5030649;28;20037;-74
2021/04/15 08:55:18;;;;;;;4.35;2.17;;;;;;;13.71;29.38;98557.06;5013151;28;20037;-76
2021/04/15 08:58:21;;;;;;;2.65;1.80;;;;;;;14.57;28.22;98549.97;5030482;28;20120;-76
2021/04/15 09:00:59;;;;;;;3.00;1.90;;;;;;;15.53;26.60;98547.88;5012782;28;20043;-76
2021/04/15 09:03:33;;;;;;;2.30;1.70;;;;;;;15.69;26.03;98556.56;5030441;28;20116;-76
2021/04/15 09:06:09;;;;;;;3.08;1.92;;;;;;;14.27;28.35;98550.56;5030366;28;20497;-75
2021/04/15 09:08:54;;;;;;;2.60;1.63;;;;;;;14.12;28.67;98539.84;5030205;28;20029;-75
2021/04/15 09:11:41;;;;;;;3.08;2.15;;;;;;;15.40;26.79;98551.44;5012426;28;20133;-75
2021/04/15 09:14:33;;;;;;;3.95;1.80;;;;;;;14.84;27.81;98544.47;5030289;28;20079;-75
2021/04/15 09:17:06;;;;;;;3.38;1.95;;;;;;;14.73;27.69;98539.44;5012539;28;20040;-76
2021/04/15 09:20:02;;;;;;;1.75;1.63;;;;;;;15.33;26.61;98540.03;5029901;28;20029;-76
2021/04/15 09:22:46;;;;;;;2.10;1.90;;;;;;;15.62;26.43;98545.97;5030093;28;20029;-76
2021/04/15 09:25:32;;;;;;;12.70;2.22;;;;;;;16.20;25.87;98548.59;5030339;28;20445;-76
2021/04/15 09:28:10;;;;;;;3.97;1.90;;;;;;;14.42;27.81;98537.34;5029983;28;20018;-78
2021/04/15 09:30:52;;;;;;;3.08;1.80;;;;;;;15.22;26.56;98538.66;5012255;28;20644;-76
2021/04/15 09:33:28;;;;;;;3.53;2.20;;;;;;;16.17;25.45;98545.66;5029844;28;20167;-74
2021/04/15 09:36:20;;;;;;;3.88;1.83;;;;;;;17.76;23.72;98534.00;5029761;28;20064;-75
2021/04/15 09:38:59;;;;;;;2.35;1.77;;;;;;;16.70;23.24;98543.63;5034307;28;20033;-75
2021/04/15 09:41:24;;;;;;;2.17;1.80;;;;;;;16.82;23.54;98537.50;5034149;28;20029;-75
2021/04/15 09:44:07;;;;;;;2.70;1.67;;;;;;;17.05;22.52;98530.69;5033803;28;20083;-75
2021/04/15 09:46:56;;;;;;;2.55;1.85;;;;;;;17.79;22.33;98531.38;5034125;28;20029;-74
2021/04/15 09:49:42;;;;;;;2.30;1.83;;;;;;;17.91;22.32;98526.00;5015906;28;20032;-75
2021/04/15 09:52:33;;;;;;;3.20;1.88;;;;;;;18.26;21.84;98523.13;5033845;28;20136;-76
2021/04/15 09:55:08;;;;;;;3.30;2.25;;;;;;;17.17;22.36;98511.50;5033650;28;20064;-74
2021/04/15 09:57:42;;;;;;;3.53;2.30;;;;;;;17.52;21.35;98515.91;5016085;28;20112;-75
2021/04/15 10:00:28;;;;;;;2.97;1.88;;;;;;;15.38;23.79;98509.59;5016084;28;20485;-74
2021/04/15 10:03:13;;;;;;;3.72;2.25;;;;;;;13.90;26.11;98500.09;5015947;28;20490;-75
2021/04/15 10:06:17;;;;;;;2.42;2.00;;;;;;;14.93;25.71;98509.53;5033705;28;20075;-76
2021/04/15 10:08:51;;;;;;;4.43;2.10;;;;;;;15.57;23.95;98513.00;4996262;28;20048;-75
2021/04/15 10:11:27;;;;;;;2.05;1.85;;;;;;;15.63;23.36;98503.47;5033463;28;20022;-75
2021/04/15 10:14:12;;;;;;;;;;;;;;;16.79;22.27;98502.22;5033317;28;20044;-73
2021/04/15 10:16:53;;;;;;;3.15;2.20;;;;;;;15.81;22.95;98501.63;5033439;28;19913;-73
2021/04/15 10:20:03;;;;;;;3.15;1.50;;;;;;;14.68;24.46;98485.31;5033753;28;20060;-74
2021/04/15 10:22:50;;;;;;;2.30;1.90;;;;;;;13.51;26.37;98482.34;4952659;29;20400;-74
2021/04/15 10:25:41;;;;;;;3.80;2.10;;;;;;;12.98;26.69;98484.56;4952891;29;20031;-74
2021/04/15 10:28:34;;;;;;;1.98;1.60;;;;;;;12.78;27.54;98486.50;5014634;28;20478;-75
2021/04/15 10:31:07;;;;;;;2.45;1.73;;;;;;;12.55;26.96;98476.41;5033111;28;20033;-76
2021/04/15 10:34:10;;;;;;;2.75;1.95;;;;;;;12.37;27.82;98468.16;5033025;28;20489;-76
2021/04/15 10:37:03;;;;;;;2.17;1.40;;;;;;;12.15;28.39;98465.97;5033054;28;20025;-75
2021/04/15 10:39:34;;;;;;;4.20;2.10;;;;;;;11.70;28.07;98462.63;5033244;28;20033;-76
2021/04/15 10:42:41;;;;;;;3.20;1.67;;;;;;;11.82;28.89;98474.00;5033311;28;20040;-75
2021/04/15 10:45:38;;;;;;;5.30;1.63;;;;;;;12.29;27.84;98466.88;5031978;28;20045;-76
2021/04/15 10:48:36;;;;;;;5.20;1.95;;;;;;;12.48;27.39;98464.97;5032246;28;20033;-74
2021/04/15 10:51:18;;;;;;;2.72;1.80;;;;;;;12.45;28.08;98459.25;5032816;28;20680;-74
2021/04/15 10:53:49;;;;;;;2.90;1.95;;;;;;;12.23;28.07;98455.16;5032460;28;20033;-75
2021/04/15 10:56:24;;;;;;;4.97;2.15;;;;;;;12.29;28.48;98458.63;5033087;28;20481;-76
2021/04/15 10:58:53;;;;;;;3.17;1.83;;;;;;;12.60;28.41;98462.59;5014780;28;20033;-75
2021/04/15 11:01:37;;;;;;;3.03;1.73;;;;;;;11.79;28.75;98457.31;5032435;28;20025;-75
2021/04/15 11:04:08;;;;;;;3.92;1.70;;;;;;;11.95;29.35;98452.47;5032486;28;20560;-75
2021/04/15 11:06:42;;;;;;;5.68;1.65;;;;;;;11.52;28.71;98446.88;5032459;28;20099;-75
2021/04/15 11:09:36;;;;;;;2.72;1.88;;;;;;;11.87;28.50;98447.66;5032224;28;20036;-75
2021/04/15 11:12:12;;;;;;;2.65;1.90;;;;;;;12.27;28.07;98452.63;5029258;28;20041;-77
2021/04/15 11:14:53;;;;;;;2.88;1.60;;;;;;;12.57;27.78;98445.91;5032176;28;20651;-75
2021/04/15 11:17:30;;;;;;;4.45;1.75;;;;;;;12.63;27.36;98444.72;5032491;28;20064;-74
2021/04/15 11:20:13;;;;;;;1.98;1.63;;;;;;;12.66;27.31;98439.47;5032588;28;20480;-76
2021/04/15 11:22:56;;;;;;;2.25;1.58;;;;;;;12.32;26.72;98438.84;5032352;28;20436;-76
2021/04/15 11:25:30;;;;;;;4.90;1.75;;;;;;;11.89;26.47;98437.19;5032271;28;20394;-74
2021/04/15 11:27:59;;;;;;;2.42;1.80;;;;;;;11.89;26.60;98423.50;5032664;28;20032;-74
2021/04/15 11:30:46;;;;;;;3.67;1.80;;;;;;;12.63;26.61;98434.56;5032185;28;20033;-75
2021/04/15 11:33:41;;;;;;;2.58;1.88;;;;;;;13.21;26.08;98434.25;5032035;28;20036;-76
2021/04/15 11:36:12;;;;;;;1.92;1.77;;;;;;;13.70;25.38;98426.22;5014193;28;20116;-75
2021/04/15 11:38:38;;;;;;;1.60;1.45;;;;;;;13.24;25.64;98423.47;5014044;28;20473;-76
2021/04/15 11:41:25;;;;;;;5.53;1.83;;;;;;;13.09;25.58;98431.97;5032014;28;20029;-75
2021/04/15 11:44:02;;;;;;;1.58;1.40;;;;;;;12.76;26.12;98425.59;5031746;28;20025;-77
2021/04/15 11:46:47;;;;;;;2.22;1.50;;;;;;;12.09;25.89;98423.25;5031865;28;20033;-75
2021/04/15 11:49:23;;;;;;;6.50;1.77;;;;;;;12.17;27.40;98417.09;5031319;28;20055;-76
2021/04/15 11:52:13;;;;;;;2.00;1.45;;;;;;;11.67;27.19;98419.31;5031923;28;20046;-75
2021/04/15 11:54:42;;;;;;;2.25;1.83;;;;;;;10.90;28.55;98412.09;5032096;28;20049;-75
2021/04/15 11:57:20;;;;;;;2.75;1.95;;;;;;;11.01;29.09;98418.31;5035611;28;20036;-76
2021/04/15 12:00:00;;;;;;;3.05;2.28;;;;;;;10.91;29.58;98413.75;5041101;28;20025;-76
2021/04/15 12:02:37;;;;;;;1.92;1.50;;;;;;;10.84;29.39;98406.97;5031788;28;20109;-75
2021/04/15 12:05:11;;;;;;;2.60;2.30;;;;;;;10.93;30.03;98410.75;5031233;28;20029;-76
2021/04/15 12:07:39;;;;;;;3.58;1.50;;;;;;;10.77;29.11;98408.09;5032669;28;20029;-75
2021/04/15 12:10:08;;;;;;;2.83;2.00;;;;;;;10.44;29.43;98403.41;5032127;28;20029;-75
2021/04/15 12:12:46;;;;;;;3.15;2.00;;;;;;;10.59;29.46;98399.75;5013154;28;20036;-76
2021/04/15 12:15:16;;;;;;;2.67;1.92;;;;;;;10.98;29.50;98405.22;5027062;28;20079;-80
2021/04/15 12:17:53;;;;;;;2.58;2.35;;;;;;;11.21;28.92;98399.00;5027234;28;20061;-78
2021/04/15 12:20:37;;;;;;;2.60;1.70;;;;;;;10.87;29.70;98406.41;5011054;28;20037;-75
2021/04/15 12:23:20;;;;;;;3.75;2.30;;;;;;;10.80;29.95;98395.78;5029178;28;20040;-77
2021/04/15 12:25:54;;;;;;;4.93;2.35;;;;;;;10.72;29.82;98389.00;5028615;28;20039;-75
2021/04/15 12:28:37;;;;;;;3.53;2.00;;;;;;;11.16;29.43;98388.88;5027411;28;20104;-76
2021/04/15 12:31:27;;;;;;;2.50;2.10;;;;;;;11.17;29.69;98378.75;5028232;28;20060;-75
2021/04/15 12:34:09;;;;;;;4.25;3.13;;;;;;;11.62;29.66;98375.53;5011144;28;20041;-74